Seavoyager — 9HUM8 — position and weather

sailwx.info

Track history (hours):
 
Tides and Currents Weather Stations Pressure Air Temp Water Temp Dewpoint Dewpoint Depression Visibility Wind Speed Wind Dir Waves Ship Positions

Seavoyager

Last reported at 2018-Jun-25 00:30 UTC. Time now 2018-Jun-25 00:42 UTC.
Position N 50°27' E 000°45'.

Length 273 m; draft 13.7 m.

Type: Ship. MMSI: 256439000.

Date/timePositionNaut miles runAvg speedWind from/ knotsBaromVisibWave heightAir tempDewpointWater temp
2018-Jun-25 00:30N 50°27' E 000°45'510.5
2018-Jun-25 00:00N 50°26' E 000°37'610.4
2018-Jun-24 23:27N 50°24' E 000°29'910.3
2018-Jun-24 22:37N 50°21' E 000°16'110.4
2018-Jun-24 22:30N 50°21' E 000°14'510.6
2018-Jun-24 22:00N 50°19' E 000°06'510.9
2018-Jun-24 21:30N 50°18' W 000°02'611.2
2018-Jun-24 21:00N 50°17' W 000°10'611.5
2018-Jun-24 20:30N 50°15' W 000°19'611.9
2018-Jun-24 20:00N 50°13' W 000°28'612.6
2018-Jun-24 19:30N 50°12' W 000°38'713.1
2018-Jun-24 19:00N 50°10' W 000°48'713.5
2018-Jun-24 18:30N 50°09' W 000°58'714.1
2018-Jun-24 17:59N 50°07' W 001°09'714.2
2018-Jun-24 17:30N 50°05' W 001°19'714.4
2018-Jun-24 16:59N 50°03' W 001°30'714.2
2018-Jun-24 16:31N 50°02' W 001°41'713.8
2018-Jun-24 16:00N 49°60' W 001°51'713.3
2018-Jun-24 15:30N 49°58' W 002°01'612.6
2018-Jun-24 15:00N 49°57' W 002°11'611.9
2018-Jun-24 14:30N 49°55' W 002°20'611.5
2018-Jun-24 13:59N 49°54' W 002°29'611.1
2018-Jun-24 13:27N 49°52' W 002°37'510.8
2018-Jun-24 13:00N 49°51' W 002°45'510.6
2018-Jun-24 12:30N 49°50' W 002°53'510.4
2018-Jun-24 12:00N 49°48' W 003°00'510.3
2018-Jun-24 11:30N 49°48' W 003°08'510.3
2018-Jun-24 11:00N 49°47' W 003°16'510.3
2018-Jun-24 10:30N 49°46' W 003°24'510.3
2018-Jun-24 10:00N 49°47' W 003°32'610.0
2018-Jun-24 09:24N 49°46' W 003°41'1810.6
2018-Jun-24 07:45N 49°46' W 004°09'712.3
2018-Jun-24 07:12N 49°44' W 004°19'512.5
2018-Jun-24 06:50N 49°44' W 004°26'912.6
2018-Jun-24 06:06N 49°43' W 004°40'112.9
2018-Jun-24 06:00N 49°43' W 004°42'612.8
2018-Jun-24 05:30N 49°43' W 004°52'612.9
2018-Jun-24 04:59N 49°42' W 005°02'613.2
2018-Jun-24 04:30N 49°42' W 005°12'713.3
2018-Jun-24 03:57N 49°41' W 005°24'613.4
2018-Jun-24 03:30N 49°41' W 005°33'2013.3
2018-Jun-24 02:01N 49°39' W 006°03'013.3
2018-Jun-24 02:00N 49°39' W 006°03'813.4
2018-Jun-24 01:26N 49°38' W 006°15'2611.7
2018-Jun-23 23:14N 49°38' W 006°55'311.5
2018-Jun-23 22:59N 49°38' W 006°59'511.5
2018-Jun-23 22:30N 49°38' W 007°08'611.6
2018-Jun-23 22:00N 49°38' W 007°17'611.6
2018-Jun-23 21:30N 49°38' W 007°26'611.5
2018-Jun-23 21:00N 49°37' W 007°35'611.3
2018-Jun-23 20:30N 49°37' W 007°43'810.9
2018-Jun-23 19:44N 49°37' W 007°56'210.7
2018-Jun-23 19:30N 49°37' W 007°60'610.8
2018-Jun-23 18:59N 49°37' W 008°09'510.8
2018-Jun-23 18:30N 49°37' W 008°17'5911.0
2018-Jun-23 13:09N 49°34' W 009°48'211.0
2018-Jun-23 13:00N 49°34' W 009°50'  
Track history (hours):
 
Tides and Currents Weather Stations Pressure Air Temp Water Temp Dewpoint Dewpoint Depression Visibility Wind Speed Wind Dir Waves Ship Positions

Seavoyager

Last reported at 2018-Jun-25 00:30 UTC. Time now 2018-Jun-25 00:42 UTC.
Position N 50°27' E 000°45'.

Length 273 m; draft 13.7 m.

Type: Ship. MMSI: 256439000.

Date/timePositionNaut miles runAvg speedWind from/ knotsBaromVisibWave heightAir tempDewpointWater temp
2018-Jun-25 00:30N 50°27' E 000°45'510.5
2018-Jun-25 00:00N 50°26' E 000°37'610.4
2018-Jun-24 23:27N 50°24' E 000°29'910.3
2018-Jun-24 22:37N 50°21' E 000°16'110.4
2018-Jun-24 22:30N 50°21' E 000°14'510.6
2018-Jun-24 22:00N 50°19' E 000°06'510.9
2018-Jun-24 21:30N 50°18' W 000°02'611.2
2018-Jun-24 21:00N 50°17' W 000°10'611.5
2018-Jun-24 20:30N 50°15' W 000°19'611.9
2018-Jun-24 20:00N 50°13' W 000°28'612.6
2018-Jun-24 19:30N 50°12' W 000°38'713.1
2018-Jun-24 19:00N 50°10' W 000°48'713.5
2018-Jun-24 18:30N 50°09' W 000°58'714.1
2018-Jun-24 17:59N 50°07' W 001°09'714.2
2018-Jun-24 17:30N 50°05' W 001°19'714.4
2018-Jun-24 16:59N 50°03' W 001°30'714.2
2018-Jun-24 16:31N 50°02' W 001°41'713.8
2018-Jun-24 16:00N 49°60' W 001°51'713.3
2018-Jun-24 15:30N 49°58' W 002°01'612.6
2018-Jun-24 15:00N 49°57' W 002°11'611.9
2018-Jun-24 14:30N 49°55' W 002°20'611.5
2018-Jun-24 13:59N 49°54' W 002°29'611.1
2018-Jun-24 13:27N 49°52' W 002°37'510.8
2018-Jun-24 13:00N 49°51' W 002°45'510.6
2018-Jun-24 12:30N 49°50' W 002°53'510.4
2018-Jun-24 12:00N 49°48' W 003°00'510.3
2018-Jun-24 11:30N 49°48' W 003°08'510.3
2018-Jun-24 11:00N 49°47' W 003°16'510.3
2018-Jun-24 10:30N 49°46' W 003°24'510.3
2018-Jun-24 10:00N 49°47' W 003°32'610.0
2018-Jun-24 09:24N 49°46' W 003°41'1810.6
2018-Jun-24 07:45N 49°46' W 004°09'712.3
2018-Jun-24 07:12N 49°44' W 004°19'512.5
2018-Jun-24 06:50N 49°44' W 004°26'912.6
2018-Jun-24 06:06N 49°43' W 004°40'112.9
2018-Jun-24 06:00N 49°43' W 004°42'612.8
2018-Jun-24 05:30N 49°43' W 004°52'612.9
2018-Jun-24 04:59N 49°42' W 005°02'613.2
2018-Jun-24 04:30N 49°42' W 005°12'713.3
2018-Jun-24 03:57N 49°41' W 005°24'613.4
2018-Jun-24 03:30N 49°41' W 005°33'2013.3
2018-Jun-24 02:01N 49°39' W 006°03'013.3
2018-Jun-24 02:00N 49°39' W 006°03'813.4
2018-Jun-24 01:26N 49°38' W 006°15'2611.7
2018-Jun-23 23:14N 49°38' W 006°55'311.5
2018-Jun-23 22:59N 49°38' W 006°59'511.5
2018-Jun-23 22:30N 49°38' W 007°08'611.6
2018-Jun-23 22:00N 49°38' W 007°17'611.6
2018-Jun-23 21:30N 49°38' W 007°26'611.5
2018-Jun-23 21:00N 49°37' W 007°35'611.3
2018-Jun-23 20:30N 49°37' W 007°43'810.9
2018-Jun-23 19:44N 49°37' W 007°56'210.7
2018-Jun-23 19:30N 49°37' W 007°60'610.8
2018-Jun-23 18:59N 49°37' W 008°09'510.8
2018-Jun-23 18:30N 49°37' W 008°17'5911.0
2018-Jun-23 13:09N 49°34' W 009°48'211.0
2018-Jun-23 13:00N 49°34' W 009°50'  

Dump ship's entire track history